createdAt,value
2022-08-25T10:13:48.049Z,7.40
2022-08-25T10:16:36.081Z,8.67
2022-08-25T10:19:17.387Z,7.83
2022-08-25T10:22:11.133Z,7.60
2022-08-25T10:24:44.447Z,8.00
2022-08-25T10:27:39.496Z,4.27
2022-08-25T10:30:38.181Z,8.65
2022-08-25T10:33:52.004Z,6.20
2022-08-25T10:36:38.674Z,7.70
2022-08-25T10:39:34.172Z,4.70
2022-08-25T10:42:32.261Z,6.75
2022-08-25T10:45:40.259Z,9.13
2022-08-25T10:49:04.521Z,6.92
2022-08-25T10:52:00.736Z,5.40
2022-08-25T10:55:21.989Z,7.45
2022-08-25T10:58:30.796Z,9.38
2022-08-25T11:01:45.445Z,5.70
2022-08-25T11:04:59.768Z,4.78
2022-08-25T11:07:49.756Z,4.37
2022-08-25T11:10:29.769Z,8.95
2022-08-25T11:13:16.467Z,4.58
2022-08-25T11:16:16.706Z,7.50
2022-08-25T11:18:37.689Z,4.87
2022-08-25T11:21:17.710Z,9.65
2022-08-25T11:24:16.471Z,4.42
2022-08-25T11:26:55.153Z,7.58
2022-08-25T11:29:32.093Z,8.38
2022-08-25T11:32:06.807Z,9.45
2022-08-25T11:34:43.819Z,8.38
2022-08-25T11:37:23.369Z,6.25
2022-08-25T11:40:22.771Z,5.85
2022-08-25T11:43:35.558Z,6.20
2022-08-25T11:46:34.719Z,3.60
2022-08-25T11:49:32.331Z,5.03
2022-08-25T11:52:06.624Z,4.12
2022-08-25T11:54:42.977Z,8.63
2022-08-25T11:57:22.986Z,7.05
2022-08-25T12:00:15.819Z,8.68
2022-08-25T12:02:51.490Z,5.80
2022-08-25T12:05:29.024Z,6.30
2022-08-25T12:08:25.505Z,5.08
2022-08-25T12:11:11.080Z,8.58
2022-08-25T12:13:49.710Z,9.63
2022-08-25T12:16:43.613Z,7.55
2022-08-25T12:19:39.916Z,6.08
2022-08-25T12:22:23.572Z,7.03
2022-08-25T12:25:16.798Z,6.08
2022-08-25T12:28:18.454Z,7.67
2022-08-25T12:30:58.659Z,9.35
2022-08-25T12:33:48.104Z,7.95
2022-08-25T12:36:33.304Z,8.98
2022-08-25T12:39:24.804Z,6.28
2022-08-25T12:42:09.289Z,6.00
2022-08-25T12:44:49.509Z,10.50
2022-08-25T12:47:31.841Z,10.05
2022-08-25T12:50:38.128Z,11.80
2022-08-25T12:53:45.868Z,10.08
2022-08-25T12:56:40.870Z,6.33
2022-08-25T12:59:20.270Z,3.45
2022-08-25T13:02:22.871Z,9.45
2022-08-25T13:05:28.620Z,6.40
2022-08-25T13:08:48.134Z,10.05
2022-08-25T13:11:28.532Z,8.53
2022-08-25T13:17:06.669Z,12.58
2022-08-25T13:19:40.389Z,12.60
2022-08-25T13:22:17.910Z,16.67
2022-08-25T13:24:51.833Z,9.05
2022-08-25T13:27:28.418Z,11.15
2022-08-25T13:30:04.027Z,18.95
2022-08-25T13:32:39.679Z,20.48
2022-08-25T13:35:25.559Z,10.63
2022-08-25T13:38:18.737Z,16.50
2022-08-25T13:40:51.947Z,12.83
2022-08-25T13:43:27.629Z,10.40
2022-08-25T13:46:00.219Z,13.05
2022-08-25T13:48:38.588Z,8.00
2022-08-25T13:51:24.733Z,10.32
2022-08-25T13:54:06.924Z,10.60
2022-08-25T13:56:43.352Z,8.65
2022-08-25T13:59:30.022Z,13.40
2022-08-25T14:02:03.299Z,12.68
2022-08-25T14:04:51.234Z,10.05
2022-08-25T14:07:34.388Z,14.35
2022-08-25T14:10:08.254Z,9.53
2022-08-25T14:12:49.842Z,9.98
2022-08-25T14:15:27.613Z,12.55
2022-08-25T14:18:08.654Z,11.18
2022-08-25T14:20:50.690Z,12.73
2022-08-25T14:23:28.424Z,7.12
2022-08-25T14:26:01.445Z,6.20
2022-08-25T14:28:35.426Z,9.80
2022-08-25T14:34:07.126Z,25.57
2022-08-25T14:36:40.040Z,18.57
2022-08-25T14:39:14.659Z,16.65
2022-08-25T14:41:52.624Z,12.00
2022-08-25T14:44:23.196Z,10.95
2022-08-25T14:46:58.225Z,18.98
2022-08-25T14:49:36.259Z,11.43
2022-08-25T14:52:23.762Z,12.30
2022-08-25T14:55:00.344Z,9.75
2022-08-25T14:57:33.582Z,12.60
2022-08-25T15:00:08.972Z,13.03
2022-08-25T15:02:44.745Z,10.90
2022-08-25T15:05:28.260Z,13.32
2022-08-25T15:08:19.061Z,12.07
2022-08-25T15:10:51.898Z,19.02
2022-08-25T15:13:27.044Z,13.22
2022-08-25T15:16:01.572Z,14.10
2022-08-25T15:18:36.024Z,21.27
2022-08-25T15:21:09.346Z,14.58
2022-08-25T15:23:44.650Z,11.90
2022-08-25T15:26:18.164Z,10.95
2022-08-25T15:28:52.284Z,15.45
2022-08-25T15:31:25.300Z,19.32
2022-08-25T15:33:59.891Z,21.45
2022-08-25T15:36:32.812Z,15.53
2022-08-25T15:39:07.627Z,15.40
2022-08-25T15:41:42.824Z,18.52
2022-08-25T15:44:15.749Z,15.20
2022-08-25T15:46:50.311Z,20.17
2022-08-25T15:49:24.351Z,15.28
2022-08-25T15:51:57.807Z,17.83
2022-08-25T15:54:32.255Z,18.90
2022-08-25T15:57:09.082Z,16.50
2022-08-25T15:59:41.507Z,15.23
2022-08-25T16:02:15.216Z,20.40
2022-08-25T16:04:51.915Z,17.12
2022-08-25T16:07:25.145Z,23.83
2022-08-25T16:09:59.333Z,21.00
2022-08-25T16:12:32.614Z,16.87
2022-08-25T16:15:06.271Z,20.67
2022-08-25T16:17:44.315Z,15.35
2022-08-25T16:20:17.905Z,19.50
2022-08-25T16:22:50.847Z,14.78
2022-08-25T16:25:24.864Z,13.22
2022-08-25T16:27:58.325Z,9.35
2022-08-25T16:30:31.542Z,12.35
2022-08-25T16:33:05.255Z,15.23
2022-08-25T16:35:40.632Z,14.68
2022-08-25T16:40:47.269Z,14.58
2022-08-25T16:43:20.205Z,16.65
2022-08-25T16:46:02.671Z,22.50
2022-08-25T16:48:38.019Z,21.17
2022-08-25T16:51:19.300Z,17.70
2022-08-25T16:54:10.578Z,24.35
2022-08-25T16:56:43.741Z,22.45
2022-08-25T16:59:17.441Z,23.75
2022-08-25T17:01:50.570Z,24.10
2022-08-25T17:04:29.558Z,26.85
2022-08-25T17:06:59.498Z,27.20
2022-08-25T17:09:32.933Z,26.73
2022-08-25T17:12:06.029Z,25.00
2022-08-25T17:14:39.557Z,30.05
2022-08-25T17:17:13.152Z,20.15
2022-08-25T17:19:50.711Z,20.05
2022-08-25T17:22:23.202Z,22.58
2022-08-25T17:25:00.918Z,22.55
2022-08-25T17:27:32.105Z,16.05
2022-08-25T17:30:06.943Z,21.10
2022-08-25T17:32:40.001Z,16.62
2022-08-25T17:35:14.084Z,17.35
2022-08-25T17:37:50.419Z,21.33
2022-08-25T17:40:22.735Z,19.10
2022-08-25T17:42:57.275Z,21.55
2022-08-25T17:45:31.481Z,20.25
2022-08-25T17:48:05.003Z,27.07
2022-08-25T17:50:40.023Z,22.67
2022-08-25T17:53:14.513Z,18.60
2022-08-25T17:55:49.316Z,22.70
2022-08-25T18:00:55.770Z,18.48
2022-08-25T18:03:29.663Z,21.10
2022-08-25T18:06:03.551Z,23.32
2022-08-25T18:11:10.526Z,17.93
2022-08-25T18:13:45.366Z,22.52
2022-08-25T18:16:18.459Z,17.42
2022-08-25T18:18:52.944Z,17.90
2022-08-25T18:21:30.346Z,18.50
2022-08-25T18:24:03.116Z,15.53
2022-08-25T18:26:37.362Z,14.63
2022-08-25T18:29:11.989Z,19.62
2022-08-25T18:31:48.513Z,17.60
2022-08-25T18:34:22.466Z,13.80
2022-08-25T18:36:55.537Z,12.20
2022-08-25T18:39:46.741Z,15.95
2022-08-25T18:42:20.291Z,10.55
2022-08-25T18:44:54.378Z,16.50
2022-08-25T18:47:27.503Z,19.17
2022-08-25T18:50:04.400Z,16.32
2022-08-25T18:52:36.179Z,12.95
2022-08-25T18:55:09.973Z,12.37
2022-08-25T18:57:44.704Z,10.23
2022-08-25T19:00:23.089Z,18.98
2022-08-25T19:02:58.538Z,12.05
2022-08-25T19:05:39.006Z,18.07
2022-08-25T19:08:14.339Z,17.42
2022-08-25T19:10:53.080Z,11.83
2022-08-25T19:13:26.306Z,13.50
2022-08-25T19:16:00.613Z,15.65
2022-08-25T19:18:33.809Z,14.38
2022-08-25T19:21:07.663Z,14.85
2022-08-25T19:23:41.177Z,13.68
2022-08-25T19:26:17.412Z,13.15
2022-08-25T19:28:50.021Z,16.20
2022-08-25T19:31:25.960Z,15.13
2022-08-25T19:33:59.478Z,17.67
2022-08-25T19:36:33.259Z,17.52
2022-08-25T19:39:09.717Z,14.63
2022-08-25T19:41:44.202Z,12.20
2022-08-25T19:44:17.978Z,9.63
2022-08-25T19:46:51.672Z,16.48
2022-08-25T19:49:31.726Z,17.50
2022-08-25T19:52:10.608Z,19.05
2022-08-25T19:54:46.866Z,16.37
2022-08-25T19:57:27.833Z,11.33
2022-08-25T19:59:55.431Z,17.30
2022-08-25T20:02:30.143Z,16.95
2022-08-25T20:05:03.490Z,13.68
2022-08-25T20:07:36.626Z,14.18
2022-08-25T20:10:14.341Z,16.30
2022-08-25T20:12:48.039Z,15.50
2022-08-25T20:15:21.569Z,13.32
2022-08-25T20:17:56.972Z,13.95
2022-08-25T20:20:32.646Z,8.80
2022-08-25T20:23:22.856Z,15.80
2022-08-25T20:25:55.909Z,17.07
2022-08-25T20:28:29.667Z,8.20
2022-08-25T20:31:02.477Z,15.08
2022-08-25T20:33:36.355Z,14.15
2022-08-25T20:36:09.628Z,17.23
2022-08-25T20:38:45.019Z,11.18
2022-08-25T20:41:18.121Z,22.05
2022-08-25T20:43:51.659Z,21.57
2022-08-25T20:46:25.159Z,17.45
2022-08-25T20:48:58.876Z,15.83
2022-08-25T20:51:33.341Z,24.50
2022-08-25T20:54:06.328Z,19.32
2022-08-25T20:56:39.585Z,28.95
2022-08-25T20:59:13.316Z,24.55
2022-08-25T21:01:49.406Z,17.52
2022-08-25T21:04:27.132Z,10.60
2022-08-25T21:07:03.505Z,9.50
2022-08-25T21:09:37.870Z,13.10
2022-08-25T21:12:11.890Z,9.28
2022-08-25T21:14:45.117Z,18.30
2022-08-25T21:17:19.516Z,11.43
2022-08-25T21:19:52.625Z,9.85
2022-08-25T21:22:26.125Z,11.93
2022-08-25T21:24:59.062Z,14.18
2022-08-25T21:27:32.201Z,11.10
2022-08-25T21:30:06.571Z,9.48
2022-08-25T21:32:41.198Z,13.88
2022-08-25T21:35:15.710Z,17.20
2022-08-25T21:37:49.125Z,12.10
2022-08-25T21:40:24.676Z,12.18
2022-08-25T21:42:57.539Z,18.07
2022-08-25T21:45:35.890Z,16.02
2022-08-25T21:48:05.960Z,9.43
2022-08-25T21:50:39.984Z,12.33
2022-08-25T21:53:12.911Z,11.40
2022-08-25T21:55:45.821Z,18.50
2022-08-25T21:58:18.611Z,12.30
2022-08-25T22:00:51.759Z,13.43
2022-08-25T22:03:26.490Z,13.22
2022-08-25T22:06:01.518Z,14.58
2022-08-25T22:08:37.567Z,11.38
2022-08-25T22:11:11.958Z,10.43
2022-08-25T22:13:46.474Z,9.10
2022-08-25T22:16:21.519Z,10.30
2022-08-25T22:18:54.768Z,14.07
2022-08-25T22:21:29.406Z,21.10
2022-08-25T22:24:02.631Z,14.58
2022-08-25T22:29:08.478Z,9.20
2022-08-25T22:31:42.407Z,11.15
2022-08-25T22:34:15.337Z,20.45
2022-08-25T22:36:50.143Z,18.35
2022-08-25T22:39:23.889Z,19.82
2022-08-25T22:41:57.193Z,22.25
2022-08-25T22:44:30.336Z,21.90
2022-08-25T22:47:03.223Z,27.70
2022-08-25T22:52:12.985Z,21.27
2022-08-25T22:54:46.078Z,15.78
2022-08-25T22:57:19.700Z,22.00
2022-08-25T22:59:52.531Z,19.23
2022-08-25T23:02:26.149Z,11.93
2022-08-25T23:05:01.046Z,12.43
2022-08-25T23:07:34.183Z,13.60
2022-08-25T23:10:12.547Z,13.08
2022-08-25T23:12:47.308Z,22.65
2022-08-25T23:15:20.173Z,16.52
2022-08-25T23:17:53.315Z,15.10
2022-08-25T23:20:45.004Z,16.85
2022-08-25T23:23:18.532Z,18.17
2022-08-25T23:25:51.462Z,17.63
2022-08-25T23:28:24.577Z,9.78
2022-08-25T23:30:59.261Z,10.68
2022-08-25T23:33:32.497Z,11.65
2022-08-25T23:36:10.887Z,10.38
2022-08-25T23:38:46.058Z,10.48
2022-08-25T23:41:23.912Z,7.42
2022-08-25T23:43:57.184Z,9.75
2022-08-25T23:46:30.879Z,10.25
2022-08-25T23:49:06.206Z,13.35
2022-08-25T23:51:41.391Z,14.07
2022-08-25T23:56:52.330Z,10.08
2022-08-25T23:59:25.564Z,9.48
